createdAt,value
2014-07-19T05:18:26.719Z,21
2014-07-19T05:18:44.938Z,52
2014-07-19T05:19:03.172Z,89
2014-07-19T05:19:20.766Z,71
2014-07-19T05:19:38.987Z,68
2014-07-19T05:19:57.331Z,64
2014-07-19T05:20:46.020Z,64
2014-07-19T05:21:02.973Z,64
2014-07-19T05:21:20.583Z,65
2014-07-19T05:21:38.303Z,65
2014-07-19T05:21:55.897Z,65
2014-07-19T05:22:12.866Z,65
2014-07-19T05:22:30.445Z,65
2014-07-19T05:22:48.054Z,65
2014-07-19T05:23:05.008Z,66
2014-07-19T05:23:23.367Z,66
2014-07-19T05:23:41.728Z,66
2014-07-19T05:23:58.697Z,66
2014-07-19T05:24:15.666Z,66
2014-07-19T05:24:33.246Z,66
2014-07-19T05:24:51.605Z,67
2014-07-19T05:25:09.840Z,67
2014-07-19T05:25:27.560Z,67
2014-07-19T05:25:44.529Z,67
2014-07-19T05:26:01.498Z,67
2014-07-19T05:26:19.717Z,67
2014-07-19T05:26:37.454Z,67
2014-07-19T05:26:55.173Z,68
2014-07-19T05:27:12.767Z,68
2014-07-19T05:27:31.127Z,68
2014-07-19T05:27:49.346Z,68
2014-07-19T05:28:07.564Z,68
2014-07-19T05:28:25.783Z,68
2014-07-19T05:28:43.379Z,68
2014-07-19T05:29:01.113Z,69
2014-07-19T05:29:18.707Z,69
2014-07-19T05:29:36.303Z,69
2014-07-19T05:29:54.522Z,69
2014-07-19T05:30:12.115Z,69
2014-07-19T05:30:30.336Z,69
2014-07-19T05:30:47.945Z,69
2014-07-19T05:31:06.164Z,70
2014-07-19T05:31:23.742Z,70
2014-07-19T05:31:41.979Z,70
2014-07-19T05:32:00.338Z,70
2014-07-19T05:32:17.932Z,70
2014-07-19T05:32:34.903Z,70
2014-07-19T05:32:51.871Z,70
2014-07-19T05:33:08.840Z,70
2014-07-19T05:33:27.199Z,71
2014-07-19T05:33:44.826Z,71
2014-07-19T05:34:02.420Z,71
2014-07-19T05:34:20.014Z,71
2014-07-19T05:34:38.404Z,71
2014-07-19T05:34:56.123Z,72
2014-07-19T05:35:14.357Z,72
2014-07-19T05:35:32.576Z,72
2014-07-19T05:35:50.214Z,72
2014-07-19T05:36:08.448Z,72
2014-07-19T05:36:26.042Z,72
2014-07-19T05:36:43.678Z,72
2014-07-19T05:37:01.897Z,72
2014-07-19T05:37:19.490Z,73
2014-07-19T05:37:37.084Z,73
2014-07-19T05:37:54.736Z,73
2014-07-19T05:38:12.971Z,73
2014-07-19T05:38:31.190Z,73
2014-07-19T05:38:48.825Z,73
2014-07-19T05:39:07.185Z,74
2014-07-19T05:39:25.544Z,74
2014-07-19T05:39:43.159Z,74
2014-07-19T05:40:01.503Z,74
2014-07-19T05:40:19.112Z,74
2014-07-19T05:40:36.706Z,74
2014-07-19T05:40:55.066Z,74
2014-07-19T05:41:12.801Z,74
2014-07-19T05:41:31.020Z,74
2014-07-19T05:41:49.255Z,75
2014-07-19T05:42:06.849Z,75
2014-07-19T05:42:23.818Z,75
2014-07-19T05:42:42.193Z,75
2014-07-19T05:43:00.412Z,75
2014-07-19T05:43:18.771Z,75
2014-07-19T05:43:36.990Z,75
2014-07-19T05:43:55.226Z,75
2014-07-19T05:44:13.445Z,75
2014-07-19T05:44:31.179Z,76
2014-07-19T05:44:49.531Z,76
2014-07-19T05:45:07.749Z,76
2014-07-19T05:45:25.359Z,76
2014-07-19T05:45:43.586Z,76
2014-07-19T05:46:01.929Z,76
2014-07-19T05:46:18.914Z,76
2014-07-19T05:46:38.023Z,77
2014-07-19T05:46:56.389Z,77
2014-07-19T05:47:14.608Z,77
2014-07-19T05:47:32.827Z,77
2014-07-19T05:47:50.428Z,77
2014-07-19T05:48:08.037Z,77
2014-07-19T05:48:25.631Z,77
2014-07-19T05:48:42.740Z,77
2014-07-19T05:49:00.341Z,77
2014-07-19T05:49:18.560Z,78
2014-07-19T05:49:36.778Z,78
2014-07-19T05:49:54.513Z,78
2014-07-19T05:50:12.111Z,78
2014-07-19T05:50:30.454Z,78
2014-07-19T05:50:48.814Z,78
2014-07-19T05:51:07.177Z,78
2014-07-19T05:51:24.896Z,78
2014-07-19T05:51:43.255Z,78
2014-07-19T05:52:01.478Z,78
2014-07-19T05:52:19.212Z,72
2014-07-19T05:52:36.806Z,78
2014-07-19T05:52:55.025Z,78
2014-07-19T05:53:12.623Z,78
2014-07-19T05:53:30.216Z,78
2014-07-19T05:53:47.826Z,78
2014-07-19T05:54:04.922Z,78
2014-07-19T05:54:23.141Z,78
2014-07-19T05:54:41.376Z,79
2014-07-19T05:54:59.597Z,78
2014-07-19T05:55:17.816Z,79
2014-07-19T05:55:36.035Z,79
2014-07-19T05:55:54.566Z,78
2014-07-19T05:56:12.788Z,78
2014-07-19T05:56:31.007Z,79
2014-07-19T05:56:49.382Z,79
2014-07-19T05:57:06.977Z,79
2014-07-19T05:57:24.571Z,79
2014-07-19T05:57:42.790Z,79
2014-07-19T05:58:00.512Z,79
2014-07-19T05:58:18.730Z,80
2014-07-19T05:58:36.949Z,80
2014-07-19T05:58:55.183Z,80
2014-07-19T05:59:13.405Z,80
2014-07-19T05:59:30.999Z,80
2014-07-19T05:59:49.218Z,80
2014-07-19T06:00:06.812Z,80
2014-07-19T06:00:25.031Z,80
2014-07-19T06:00:42.641Z,80
2014-07-19T06:01:00.986Z,80
2014-07-19T06:01:19.221Z,80
2014-07-19T06:01:37.439Z,80
2014-07-19T06:01:55.033Z,80
2014-07-19T06:02:12.004Z,80
2014-07-19T06:02:29.598Z,79
2014-07-19T06:02:46.566Z,79
2014-07-19T06:03:04.803Z,80
2014-07-19T06:03:22.522Z,81
2014-07-19T06:03:39.506Z,81
2014-07-19T06:03:57.850Z,81
2014-07-19T06:04:15.445Z,81
2014-07-19T06:04:32.555Z,81
2014-07-19T06:04:49.508Z,81
2014-07-19T06:05:07.244Z,81
2014-07-19T06:05:25.463Z,81
2014-07-19T06:05:43.057Z,82
2014-07-19T06:06:01.293Z,82
2014-07-19T06:06:19.512Z,82
2014-07-19T06:06:37.106Z,82
2014-07-19T06:06:55.324Z,82
2014-07-19T06:07:13.545Z,82
2014-07-19T06:07:31.139Z,82
2014-07-19T06:07:49.498Z,82
2014-07-19T06:08:07.110Z,82
2014-07-19T06:08:24.703Z,82
2014-07-19T06:08:42.922Z,82
2014-07-19T06:09:01.143Z,83
2014-07-19T06:09:19.362Z,83
2014-07-19T06:09:36.955Z,83
2014-07-19T06:09:53.971Z,83
2014-07-19T06:10:11.582Z,83
2014-07-19T06:10:28.551Z,83
2014-07-19T06:10:46.145Z,83
2014-07-19T06:11:03.741Z,83
2014-07-19T06:11:21.334Z,83
2014-07-19T06:11:39.053Z,83
2014-07-19T06:11:57.288Z,84
2014-07-19T06:12:14.883Z,84
2014-07-19T06:12:32.477Z,84
2014-07-19T06:12:50.836Z,84
2014-07-19T06:13:08.431Z,84
2014-07-19T06:13:25.400Z,84
2014-07-19T06:13:42.994Z,84
2014-07-19T06:14:00.590Z,84
2014-07-19T06:14:18.809Z,84
2014-07-19T06:14:36.403Z,84
2014-07-19T06:14:54.762Z,84
2014-07-19T06:15:13.124Z,84
2014-07-19T06:15:31.342Z,84
2014-07-19T06:15:49.561Z,84
2014-07-19T06:16:07.797Z,84
2014-07-19T06:16:26.140Z,85
2014-07-19T06:16:43.109Z,85
2014-07-19T06:17:00.703Z,85
2014-07-19T06:17:19.065Z,85
2014-07-19T06:17:36.675Z,85
2014-07-19T06:17:54.268Z,85
2014-07-19T06:18:11.864Z,85
2014-07-19T06:18:29.583Z,85
2014-07-19T06:18:47.177Z,85
2014-07-19T06:19:04.771Z,85
2014-07-19T06:19:22.506Z,85
2014-07-19T06:19:40.724Z,85
2014-07-19T06:19:58.318Z,86
2014-07-19T06:20:15.915Z,86
2014-07-19T06:20:34.149Z,86
2014-07-19T06:20:52.352Z,86
2014-07-19T06:21:10.089Z,86
2014-07-19T06:21:27.683Z,86
2014-07-19T06:21:45.276Z,86
2014-07-19T06:22:02.886Z,86
2014-07-19T06:22:20.480Z,86
2014-07-19T06:22:38.074Z,86
2014-07-19T06:22:56.309Z,86
2014-07-19T06:23:13.904Z,87
2014-07-19T06:23:30.873Z,87
2014-07-19T06:23:48.467Z,87
2014-07-19T06:24:06.701Z,87
2014-07-19T06:24:25.063Z,87
2014-07-19T06:24:42.016Z,87
2014-07-19T06:24:59.609Z,88
2014-07-19T06:25:16.580Z,88
2014-07-19T06:25:34.315Z,88
2014-07-19T06:25:52.533Z,88
2014-07-19T06:26:10.893Z,88
2014-07-19T06:26:28.488Z,88
2014-07-19T06:26:45.457Z,88
2014-07-19T06:27:03.817Z,88
2014-07-19T06:27:22.162Z,88
2014-07-19T06:27:40.381Z,88
2014-07-19T06:27:58.615Z,88
2014-07-19T06:28:16.977Z,88
2014-07-19T06:28:34.696Z,88
2014-07-19T06:28:52.914Z,88
2014-07-19T06:29:10.508Z,88
2014-07-19T06:29:28.243Z,88
2014-07-19T06:29:45.962Z,89
2014-07-19T06:30:04.322Z,88
2014-07-19T06:30:22.559Z,88
2014-07-19T06:30:40.153Z,89
2014-07-19T06:30:58.371Z,89
2014-07-19T06:31:16.107Z,89
2014-07-19T06:31:33.701Z,89
2014-07-19T06:31:51.919Z,89
2014-07-19T06:32:09.654Z,89
2014-07-19T06:32:27.875Z,89
2014-07-19T06:32:46.094Z,89
2014-07-19T06:33:05.250Z,89
2014-07-19T06:33:23.611Z,89
2014-07-19T06:33:41.205Z,89
2014-07-19T06:33:58.173Z,89
2014-07-19T06:34:15.767Z,89
2014-07-19T06:34:33.364Z,89
2014-07-19T06:34:51.598Z,89
2014-07-19T06:35:09.817Z,89
2014-07-19T06:35:28.162Z,90
2014-07-19T06:36:16.209Z,90
2014-07-19T06:36:33.946Z,90
2014-07-19T06:36:50.915Z,89
2014-07-19T06:37:09.133Z,89
2014-07-19T06:37:26.102Z,89
2014-07-19T06:37:44.323Z,89
2014-07-19T06:38:02.542Z,90
2014-07-19T06:38:20.135Z,90
2014-07-19T06:38:37.730Z,90
2014-07-19T06:38:55.465Z,90
2014-07-19T06:39:13.183Z,89
2014-07-19T06:39:53.435Z,90
2014-07-19T06:40:11.795Z,90
2014-07-19T06:40:30.029Z,90
2014-07-19T06:40:47.626Z,91
2014-07-19T06:41:05.345Z,91
2014-07-19T06:41:22.938Z,91
2014-07-19T06:41:41.158Z,91
2014-07-19T06:41:58.752Z,91
2014-07-19T06:42:16.986Z,91
2014-07-19T06:42:34.582Z,91
2014-07-19T06:42:52.176Z,91
2014-07-19T06:43:09.785Z,91
2014-07-19T06:43:28.004Z,91
2014-07-19T06:43:45.615Z,91
2014-07-19T06:44:03.193Z,91
2014-07-19T06:44:20.787Z,91
2014-07-19T06:44:39.008Z,91
2014-07-19T06:44:57.242Z,91
2014-07-19T06:45:15.461Z,92
2014-07-19T06:45:33.680Z,91
2014-07-19T06:45:51.275Z,92
2014-07-19T06:46:09.635Z,92
2014-07-19T06:46:27.229Z,92
2014-07-19T06:46:44.825Z,92
2014-07-19T06:47:02.403Z,92
2014-07-19T06:47:19.997Z,92
2014-07-19T06:47:38.234Z,92
2014-07-19T06:47:55.827Z,92
2014-07-19T06:48:13.421Z,92
2014-07-19T06:48:31.015Z,92
2014-07-19T06:48:49.235Z,92
2014-07-19T06:49:06.828Z,92
2014-07-19T06:49:24.422Z,92
2014-07-19T06:49:42.033Z,90
2014-07-19T06:50:00.377Z,92
2014-07-19T06:50:18.612Z,91
2014-07-19T06:50:36.830Z,93
2014-07-19T06:50:55.192Z,93
2014-07-19T06:51:13.410Z,90
2014-07-19T06:51:32.551Z,93
2014-07-19T06:51:50.772Z,93
2014-07-19T06:52:07.741Z,93
2014-07-19T06:52:55.789Z,93
2014-07-19T06:53:13.383Z,89
2014-07-19T06:53:31.602Z,93
2014-07-19T06:53:49.823Z,93
2014-07-19T06:54:08.041Z,93
2014-07-19T06:54:25.760Z,94
2014-07-19T06:54:44.122Z,94
2014-07-19T06:55:01.715Z,76
2014-07-19T06:55:19.934Z,94
2014-07-19T06:55:37.543Z,84
2014-07-19T06:55:55.139Z,93
2014-07-19T06:56:13.358Z,94
2014-07-19T06:56:30.952Z,94
2014-07-19T06:56:48.546Z,94
2014-07-19T06:57:06.156Z,94
2014-07-19T06:57:23.750Z,94
2014-07-19T06:57:41.968Z,94
2014-07-19T06:58:00.331Z,94
2014-07-19T06:58:18.549Z,94
2014-07-19T06:58:36.784Z,94
2014-07-19T06:58:54.380Z,94
2014-07-19T06:59:10.848Z,94
2014-07-19T06:59:28.442Z,94
2014-07-19T06:59:46.661Z,94
2014-07-19T07:00:05.021Z,94
2014-07-19T07:00:22.756Z,94
2014-07-19T07:00:40.974Z,94
2014-07-19T07:00:58.696Z,94
2014-07-19T07:01:16.930Z,94
2014-07-19T07:01:34.649Z,94
2014-07-19T07:01:52.868Z,94
2014-07-19T07:02:10.463Z,94
2014-07-19T07:02:28.681Z,94
2014-07-19T07:02:46.275Z,94
2014-07-19T07:03:03.872Z,94
2014-07-19T07:03:22.106Z,94
2014-07-19T07:03:39.700Z,95
2014-07-19T07:03:57.295Z,94
2014-07-19T07:04:15.514Z,95
2014-07-19T07:04:33.107Z,95
2014-07-19T07:04:50.701Z,95
2014-07-19T07:05:08.298Z,94
2014-07-19T07:05:26.017Z,94
2014-07-19T07:05:43.626Z,94
2014-07-19T07:06:01.862Z,95
2014-07-19T07:06:19.503Z,95
2014-07-19T07:06:37.097Z,79
2014-07-19T07:06:55.315Z,90
2014-07-19T07:07:12.911Z,94
2014-07-19T07:07:30.505Z,87
2014-07-19T07:07:48.724Z,95
2014-07-19T07:08:06.304Z,96
2014-07-19T07:08:24.538Z,95
2014-07-19T07:08:42.757Z,96
2014-07-19T07:09:00.352Z,96
2014-07-19T07:09:17.945Z,96
2014-07-19T07:09:36.164Z,96
2014-07-19T07:09:53.758Z,96
2014-07-19T07:10:11.994Z,96
2014-07-19T07:10:29.713Z,96
2014-07-19T07:10:47.932Z,96
2014-07-19T07:11:06.168Z,96
2014-07-19T07:11:23.762Z,96
2014-07-19T07:11:41.356Z,94
2014-07-19T07:11:59.717Z,95
2014-07-19T07:12:17.936Z,96
2014-07-19T07:12:35.670Z,96
2014-07-19T07:12:53.889Z,96
2014-07-19T07:13:11.547Z,96
2014-07-19T07:13:29.235Z,96
2014-07-19T07:13:46.813Z,96
2014-07-19T07:14:04.409Z,96
2014-07-19T07:14:22.627Z,96
2014-07-19T07:14:40.237Z,96
2014-07-19T07:14:57.330Z,96
2014-07-19T07:15:15.551Z,96
2014-07-19T07:15:33.786Z,96
2014-07-19T07:15:51.379Z,96
2014-07-19T07:16:08.959Z,96
2014-07-19T07:16:27.194Z,96
2014-07-19T07:16:45.413Z,96
2014-07-19T07:17:03.008Z,96
2014-07-19T07:17:20.602Z,96
2014-07-19T07:17:38.196Z,96
2014-07-19T07:17:56.415Z,96
2014-07-19T07:18:14.651Z,96
2014-07-19T07:18:32.870Z,96
2014-07-19T07:18:51.229Z,96
2014-07-19T07:19:08.965Z,97
2014-07-19T07:19:25.934Z,97
2014-07-19T07:19:43.528Z,97
2014-07-19T07:20:00.655Z,97
2014-07-19T07:20:18.249Z,97
2014-07-19T07:20:35.217Z,97
2014-07-19T07:20:53.561Z,97
2014-07-19T07:21:11.173Z,97
2014-07-19T07:21:29.391Z,97
2014-07-19T07:21:47.610Z,97
2014-07-19T07:22:05.346Z,97
2014-07-19T07:22:22.940Z,95
2014-07-19T07:22:40.659Z,97
2014-07-19T07:22:58.893Z,98
2014-07-19T07:23:16.488Z,97
2014-07-19T07:23:33.457Z,96
2014-07-19T07:23:51.676Z,98
2014-07-19T07:24:09.396Z,98
2014-07-19T07:24:27.631Z,98
2014-07-19T07:24:45.990Z,98
2014-07-19T07:25:04.211Z,98
2014-07-19T07:25:22.430Z,98
2014-07-19T07:25:40.648Z,98
2014-07-19T07:25:59.008Z,98
2014-07-19T07:26:16.603Z,98
2014-07-19T07:26:34.822Z,98
2014-07-19T07:26:53.182Z,98
2014-07-19T07:27:10.777Z,98
2014-07-19T07:27:29.121Z,98
2014-07-19T07:27:47.340Z,98
2014-07-19T07:28:04.935Z,98
2014-07-19T07:28:23.153Z,98
2014-07-19T07:28:41.372Z,98
2014-07-19T07:28:59.106Z,98
2014-07-19T07:29:16.703Z,99
2014-07-19T07:29:34.297Z,99
2014-07-19T07:29:51.891Z,99
2014-07-19T07:30:10.110Z,99
2014-07-19T07:30:27.704Z,99
2014-07-19T07:30:45.298Z,99
2014-07-19T07:31:02.892Z,99
2014-07-19T07:31:20.628Z,99
2014-07-19T07:31:38.847Z,99
2014-07-19T07:31:57.066Z,100
2014-07-19T07:32:15.303Z,100
2014-07-19T07:32:32.897Z,100
2014-07-19T07:32:51.272Z,96
2014-07-19T07:33:09.632Z,96
2014-07-19T07:33:27.226Z,100
2014-07-19T07:33:44.820Z,100
2014-07-19T07:34:02.413Z,100
2014-07-19T07:34:20.650Z,101
2014-07-19T07:34:37.603Z,100
2014-07-19T07:34:55.197Z,101
2014-07-19T07:35:12.808Z,101
2014-07-19T07:35:30.402Z,101
2014-07-19T07:35:48.620Z,101
2014-07-19T07:36:05.589Z,101
2014-07-19T07:36:23.185Z,101
2014-07-19T07:36:40.779Z,100
2014-07-19T07:36:59.138Z,100
2014-07-19T07:37:17.359Z,100
2014-07-19T07:37:35.093Z,100
2014-07-19T07:37:53.328Z,101
2014-07-19T07:38:11.548Z,101
2014-07-19T07:38:29.783Z,101
2014-07-19T07:39:18.582Z,101
2014-07-19T07:39:36.800Z,101
2014-07-19T07:39:54.410Z,102
2014-07-19T07:40:12.021Z,101
2014-07-19T07:40:29.599Z,96
2014-07-19T07:40:46.709Z,98
2014-07-19T07:41:03.802Z,101
2014-07-19T07:41:22.039Z,102
2014-07-19T07:41:40.273Z,102
2014-07-19T07:41:58.617Z,102
2014-07-19T07:42:15.603Z,102
2014-07-19T07:42:33.322Z,102
2014-07-19T07:42:51.556Z,102
2014-07-19T07:43:09.134Z,102
2014-07-19T07:43:27.371Z,102
2014-07-19T07:43:44.980Z,101
2014-07-19T07:44:03.340Z,101
2014-07-19T07:44:21.560Z,101
2014-07-19T07:44:38.529Z,101
2014-07-19T07:44:56.123Z,100
2014-07-19T07:45:14.373Z,100
2014-07-19T07:45:32.577Z,100
2014-07-19T07:45:50.796Z,100
2014-07-19T07:46:07.889Z,99
2014-07-19T07:46:25.502Z,100
2014-07-19T07:46:43.783Z,99
2014-07-19T07:47:02.002Z,99
2014-07-19T07:47:19.598Z,99
2014-07-19T07:47:37.832Z,100
2014-07-19T07:47:55.426Z,100
2014-07-19T07:48:13.644Z,100
2014-07-19T07:48:31.881Z,100
2014-07-19T07:48:51.834Z,100
2014-07-19T07:49:10.490Z,101
2014-07-19T07:49:28.242Z,101
2014-07-19T07:49:46.602Z,101
2014-07-19T07:50:04.820Z,101
2014-07-19T07:50:22.416Z,101
2014-07-19T07:50:40.650Z,101
2014-07-19T07:50:57.744Z,101
2014-07-19T07:51:15.979Z,101
2014-07-19T07:51:34.340Z,101
2014-07-19T07:51:52.574Z,101
2014-07-19T07:52:10.793Z,101
2014-07-19T07:52:28.389Z,101
2014-07-19T07:52:46.623Z,101
2014-07-19T07:53:04.983Z,101
2014-07-19T07:53:23.203Z,99
2014-07-19T07:53:41.422Z,99
2014-07-19T07:53:59.781Z,101
2014-07-19T07:54:17.375Z,103
2014-07-19T07:54:34.971Z,103
2014-07-19T07:54:52.080Z,103
2014-07-19T07:55:09.674Z,103
2014-07-19T07:55:26.645Z,103
2014-07-19T07:55:44.239Z,103
2014-07-19T07:56:01.973Z,103
2014-07-19T07:56:19.707Z,104
2014-07-19T07:56:37.927Z,104
2014-07-19T07:56:56.286Z,104
2014-07-19T07:57:14.521Z,104
2014-07-19T07:57:32.742Z,104
2014-07-19T07:57:50.476Z,104
2014-07-19T07:58:08.695Z,104
2014-07-19T07:58:26.306Z,104
2014-07-19T07:58:44.665Z,104
2014-07-19T07:59:02.259Z,105
2014-07-19T07:59:20.478Z,105
2014-07-19T07:59:38.214Z,105
2014-07-19T07:59:55.808Z,105
2014-07-19T08:00:14.042Z,105
2014-07-19T08:00:32.263Z,105
2014-07-19T08:00:49.857Z,105
2014-07-19T08:01:08.076Z,105
2014-07-19T08:01:26.437Z,105
2014-07-19T08:01:44.671Z,105
2014-07-19T08:02:02.390Z,105
2014-07-19T08:02:20.765Z,105
2014-07-19T08:02:39.127Z,105
2014-07-19T08:02:56.845Z,105
2014-07-19T08:03:13.830Z,105
2014-07-19T08:03:32.049Z,105
2014-07-19T08:03:49.784Z,105
2014-07-19T08:04:08.003Z,105
2014-07-19T08:04:25.612Z,105
2014-07-19T08:04:43.209Z,105
2014-07-19T08:05:00.802Z,105
2014-07-19T08:05:18.396Z,105
2014-07-19T08:05:36.616Z,105
2014-07-19T08:05:54.850Z,105
2014-07-19T08:06:13.210Z,105
2014-07-19T08:06:31.431Z,105
2014-07-19T08:06:49.666Z,105
2014-07-19T08:07:07.385Z,105
2014-07-19T08:07:25.603Z,105
2014-07-19T08:07:43.840Z,105
2014-07-19T08:08:01.433Z,106
2014-07-19T08:08:19.027Z,106
2014-07-19T08:08:37.264Z,106
2014-07-19T08:08:55.482Z,106
2014-07-19T08:09:13.842Z,106
2014-07-19T08:09:31.437Z,106
2014-07-19T08:09:49.031Z,106
2014-07-19T08:10:06.641Z,106
2014-07-19T08:10:24.375Z,106
2014-07-19T08:10:42.595Z,106
2014-07-19T08:11:00.188Z,106
2014-07-19T08:11:18.423Z,106
2014-07-19T08:11:36.659Z,106
2014-07-19T08:11:54.894Z,106
2014-07-19T08:12:13.112Z,106
2014-07-19T08:12:30.222Z,106
2014-07-19T08:12:48.458Z,106
2014-07-19T08:13:06.052Z,106
2014-07-19T08:13:23.646Z,106
2014-07-19T08:13:41.257Z,106
2014-07-19T08:13:59.616Z,106
2014-07-19T08:14:17.835Z,106
2014-07-19T08:14:35.429Z,106
2014-07-19T08:14:53.165Z,106
2014-07-19T08:15:10.134Z,106
2014-07-19T08:15:28.368Z,106
2014-07-19T08:15:45.964Z,107
2014-07-19T08:16:02.933Z,107
2014-07-19T08:16:20.652Z,107
2014-07-19T08:16:38.888Z,107
2014-07-19T08:16:57.263Z,107
2014-07-19T08:17:14.357Z,107
2014-07-19T08:17:32.575Z,107
2014-07-19T08:17:50.812Z,107
2014-07-19T08:18:09.046Z,107
2014-07-19T08:18:27.265Z,108
2014-07-19T08:18:45.001Z,108
2014-07-19T08:19:03.361Z,106
2014-07-19T08:19:21.579Z,97
2014-07-19T08:19:39.814Z,100
2014-07-19T08:19:58.035Z,99
2014-07-19T08:20:15.628Z,103
2014-07-19T08:20:33.863Z,108
2014-07-19T08:20:51.458Z,108
2014-07-19T08:21:09.802Z,108
2014-07-19T10:35:38.466Z,84
2014-07-19T10:35:56.170Z,96
2014-07-19T10:36:13.734Z,96
2014-07-19T10:36:31.297Z,96
2014-07-19T10:36:48.875Z,96
2014-07-19T10:37:06.453Z,96
2014-07-19T10:37:24.642Z,96
2014-07-19T10:37:42.345Z,96
2014-07-19T10:37:59.908Z,96
2014-07-19T10:38:18.113Z,96
2014-07-19T10:38:33.801Z,96
2014-07-19T10:38:51.988Z,96
2014-07-19T10:39:09.566Z,96
2014-07-19T10:39:27.146Z,96
2014-07-19T10:39:45.334Z,96
2014-07-19T10:40:03.053Z,96
2014-07-19T10:40:20.758Z,96
2014-07-19T10:40:38.320Z,96
2014-07-19T10:40:56.523Z,96
2014-07-19T10:41:14.728Z,96
2014-07-19T10:41:32.307Z,96
2014-07-19T10:41:49.869Z,96
2014-07-19T10:42:07.447Z,96
2014-07-19T10:42:24.387Z,96
2014-07-19T10:42:41.965Z,96
2014-07-19T10:42:59.668Z,96
2014-07-19T10:43:17.856Z,96
2014-07-19T10:43:34.810Z,96
2014-07-19T10:43:51.747Z,96
2014-07-19T10:44:09.325Z,96
2014-07-19T10:44:27.516Z,96
2014-07-19T10:44:45.094Z,96
2014-07-19T10:45:03.281Z,96
2014-07-19T10:45:21.485Z,96
2014-07-19T10:45:39.064Z,87
2014-07-19T10:45:56.001Z,96
2014-07-19T10:46:14.204Z,96
2014-07-19T10:46:32.410Z,96
2014-07-19T10:46:49.348Z,96
2014-07-19T10:47:06.426Z,96
2014-07-19T10:47:23.988Z,96
2014-07-19T10:47:42.194Z,96
2014-07-19T10:47:59.772Z,96
2014-07-19T10:48:17.334Z,96
2014-07-19T10:48:35.538Z,96
2014-07-19T10:48:53.741Z,97
2014-07-19T10:49:11.945Z,97
2014-07-19T10:49:29.023Z,96
2014-07-19T10:49:47.213Z,96
2014-07-19T10:50:04.916Z,96
2014-07-19T10:50:23.119Z,95
2014-07-19T10:50:40.824Z,95
2014-07-19T10:50:59.011Z,95
2014-07-19T10:51:16.089Z,95
2014-07-19T10:51:34.294Z,74
2014-07-19T10:51:51.247Z,95
2014-07-19T10:52:09.435Z,95
2014-07-19T10:52:27.154Z,95
2014-07-19T10:52:45.359Z,95
2014-07-19T10:53:03.546Z,94
2014-07-19T10:53:20.624Z,94
2014-07-19T10:53:38.955Z,94
2014-07-19T10:53:57.298Z,94
2014-07-19T10:54:15.626Z,94
2014-07-19T10:54:33.832Z,94
2014-07-19T10:54:52.035Z,95
2014-07-19T10:55:09.613Z,94
2014-07-19T10:55:27.816Z,93
2014-07-19T10:55:45.380Z,93
2014-07-19T10:56:03.724Z,93
2014-07-19T10:56:20.662Z,93
2014-07-19T10:56:38.367Z,93
2014-07-19T10:57:17.304Z,92
2014-07-19T10:57:35.509Z,87
2014-07-19T10:57:53.713Z,69
2014-07-19T10:58:41.886Z,90
2014-07-19T10:59:00.074Z,91
2014-07-19T10:59:17.652Z,91
2014-07-19T10:59:35.855Z,91
2014-07-19T10:59:54.060Z,91
2014-07-19T11:00:11.638Z,90
2014-07-19T11:00:29.842Z,91
2014-07-19T11:00:48.047Z,90
2014-07-19T11:01:35.719Z,91
2014-07-19T11:01:53.299Z,90
2014-07-19T11:02:11.486Z,90
2014-07-19T11:02:28.424Z,89
2014-07-19T11:02:45.362Z,89
2014-07-19T11:03:02.940Z,89
2014-07-19T11:03:21.128Z,89
2014-07-19T11:03:38.706Z,88
2014-07-19T11:03:56.287Z,87
2014-07-19T11:04:14.615Z,87
2014-07-19T11:04:32.193Z,88
2014-07-19T11:04:49.773Z,88
2014-07-19T11:05:07.961Z,88
2014-07-19T11:05:24.898Z,88
2014-07-19T11:05:43.103Z,89
2014-07-19T11:06:00.821Z,89
2014-07-19T11:06:19.024Z,89
2014-07-19T11:06:36.603Z,89
2014-07-19T11:06:54.809Z,89
2014-07-19T11:07:12.371Z,89
2014-07-19T11:07:30.090Z,89
2014-07-19T11:07:48.278Z,89
2014-07-19T11:08:05.857Z,88
2014-07-19T11:08:24.060Z,89
2014-07-19T11:08:41.638Z,89
2014-07-19T11:08:59.827Z,88
2014-07-19T11:09:18.171Z,88
2014-07-19T11:09:36.374Z,88
2014-07-19T11:09:54.705Z,88
2014-07-19T11:10:11.018Z,87
2014-07-19T11:10:29.221Z,88
2014-07-19T11:10:46.800Z,88
2014-07-19T11:11:04.503Z,88
2014-07-19T11:11:22.066Z,88
2014-07-19T11:11:39.784Z,88
2014-07-19T11:11:57.349Z,88
2014-07-19T11:12:15.552Z,88
2014-07-19T11:12:32.615Z,88
2014-07-19T11:12:50.820Z,89
2014-07-19T11:13:07.898Z,88
2014-07-19T11:13:25.601Z,87
2014-07-19T11:13:43.788Z,87
2014-07-19T11:14:00.870Z,88
2014-07-19T11:14:19.073Z,88
2014-07-19T11:14:37.276Z,88
2014-07-19T11:14:54.855Z,88
2014-07-19T11:15:12.574Z,88
2014-07-19T11:15:30.277Z,88
2014-07-19T11:15:48.480Z,88
2014-07-19T11:16:05.419Z,88
2014-07-19T11:16:23.623Z,88
2014-07-19T11:16:41.826Z,89
2014-07-19T11:17:00.171Z,89
2014-07-19T11:17:18.390Z,89
2014-07-19T11:17:35.328Z,88
2014-07-19T11:17:53.046Z,88
2014-07-19T11:18:11.252Z,88
2014-07-19T11:18:28.845Z,88
2014-07-19T11:18:47.033Z,88
2014-07-19T11:19:05.238Z,88
2014-07-19T11:19:22.941Z,88
2014-07-19T11:19:41.129Z,88
2014-07-19T11:19:59.474Z,88
2014-07-19T11:20:17.677Z,88
2014-07-19T11:20:35.865Z,88
2014-07-19T11:20:54.068Z,88
2014-07-19T11:21:12.397Z,88
2014-07-19T11:21:30.600Z,88
2014-07-19T11:21:47.538Z,88
2014-07-19T11:22:05.118Z,88
2014-07-19T11:22:22.805Z,88
2014-07-19T11:22:40.524Z,88
2014-07-19T11:22:58.715Z,88
2014-07-19T11:23:17.058Z,88
2014-07-19T11:23:35.402Z,88
2014-07-19T11:23:52.340Z,88
2014-07-19T11:24:08.654Z,88
2014-07-19T11:24:26.857Z,88
2014-07-19T11:24:43.920Z,88
2014-07-19T11:25:02.125Z,88
2014-07-19T11:25:19.828Z,88
2014-07-19T11:25:37.391Z,88
2014-07-19T11:25:55.734Z,88
2014-07-19T11:26:12.688Z,88
2014-07-19T11:26:30.892Z,87
2014-07-19T11:26:49.220Z,87
2014-07-19T11:27:06.784Z,87
2014-07-19T11:27:24.362Z,87
2014-07-19T11:27:42.550Z,86
2014-07-19T11:27:59.503Z,86
2014-07-19T11:28:17.833Z,86
2014-07-19T11:28:34.771Z,86
2014-07-19T11:28:52.974Z,86
2014-07-19T11:29:10.554Z,86
2014-07-19T11:29:28.741Z,86
2014-07-19T11:29:47.085Z,86
2014-07-19T11:30:04.790Z,86
2014-07-19T11:30:22.978Z,86
2014-07-19T11:30:40.696Z,86
2014-07-19T11:30:58.884Z,86
2014-07-19T11:31:16.464Z,88
2014-07-19T11:31:33.542Z,88
2014-07-19T11:31:51.105Z,88
2014-07-19T11:32:09.310Z,88
2014-07-19T11:32:27.497Z,88
2014-07-19T11:32:45.700Z,88
2014-07-19T11:33:03.906Z,88
2014-07-19T11:33:22.093Z,88
2014-07-19T11:33:39.812Z,88
2014-07-19T11:33:57.999Z,88
2014-07-19T11:34:14.939Z,88
2014-07-19T11:34:33.142Z,88
2014-07-19T11:34:50.845Z,88
2014-07-19T11:35:09.049Z,88
2014-07-19T11:35:27.268Z,88
2014-07-19T11:35:44.205Z,87
2014-07-19T11:36:02.395Z,87
2014-07-19T11:36:19.348Z,87
2014-07-19T11:36:37.551Z,87
2014-07-19T11:36:55.770Z,86
2014-07-19T11:37:13.350Z,86
2014-07-19T11:37:31.538Z,85
2014-07-19T11:38:19.977Z,85
2014-07-19T11:38:37.555Z,85
2014-07-19T11:38:55.758Z,85
2014-07-19T11:39:13.323Z,84
2014-07-19T11:39:30.401Z,75
2014-07-19T11:39:48.104Z,85
2014-07-19T11:40:06.309Z,85
2014-07-19T11:40:23.247Z,85
2014-07-19T11:40:41.450Z,85
2014-07-19T11:40:59.012Z,84
2014-07-19T11:41:17.233Z,84
2014-07-19T11:41:35.436Z,84
2014-07-19T11:41:53.639Z,84
2014-07-19T11:42:11.344Z,84
2014-07-19T11:42:29.548Z,84
2014-07-19T11:42:47.751Z,83
2014-07-19T11:43:05.971Z,82
2014-07-19T11:43:24.175Z,82
2014-07-19T11:43:41.737Z,82
2014-07-19T11:43:59.942Z,82
2014-07-19T11:44:17.520Z,82
2014-07-19T11:44:35.708Z,81
2014-07-19T11:44:53.911Z,82
2014-07-19T11:45:12.116Z,82
2014-07-19T11:45:30.319Z,82
2014-07-19T11:45:48.522Z,82
2014-07-19T11:46:06.852Z,82
2014-07-19T11:46:25.056Z,82
2014-07-19T11:46:42.634Z,82
2014-07-19T11:47:00.227Z,82
2014-07-19T11:47:17.808Z,82
2014-07-19T11:47:35.495Z,82
2014-07-19T11:47:53.698Z,82
2014-07-19T11:48:11.902Z,82
2014-07-19T11:48:28.980Z,82
2014-07-19T11:48:47.184Z,82
2014-07-19T11:49:04.124Z,82
2014-07-19T11:49:22.327Z,83
2014-07-19T11:49:40.530Z,82
2014-07-19T11:49:58.858Z,82